Time;durP1;ratioP1;P1;durP2;ratioP2;P2;SDS_P1;SDS_P2;PMS_P1;PMS_P2;Temp;Humidity;BMP_temperature;BMP_pressure;BME280_temperature;BME280_humidity;BME280_pressure;Samples;Min_cycle;Max_cycle;Signal;HPM_P1;HPM_P2
2022/05/24 00:01:59;;;;;;;7.50;3.80;;;;;;;;;;5069183;28;20460;-70
2022/05/24 00:04:27;;;;;;;4.03;3.00;;;;;;;;;;5064343;28;20465;-70
2022/05/24 00:06:55;;;;;;;6.97;3.23;;;;;;;;;;5057771;28;20882;-71
2022/05/24 00:09:22;;;;;;;4.47;3.40;;;;;;;;;;5060886;28;20457;-70
2022/05/24 00:11:50;;;;;;;9.03;4.00;;;;;;;;;;5070099;28;21076;-70
2022/05/24 00:15:19;;;;;;;3.60;2.93;;;;;;;;;;5075608;28;20542;-70
2022/05/24 00:17:08;;;;;;;6.97;4.27;;;;;;;;;;5069060;28;20436;-70
2022/05/24 00:19:36;;;;;;;5.53;3.80;;;;;;;;;;5049830;28;20458;-70
2022/05/24 00:22:04;;;;;;;4.17;3.63;;;;;;;;;;5057913;28;20527;-69
2022/05/24 00:24:32;;;;;;;3.83;3.20;;;;;;;;;;5060196;28;20886;-70
2022/05/24 00:26:59;;;;;;;6.33;3.57;;;;;;;;;;5068894;28;20464;-71
2022/05/24 00:29:29;;;;;;;7.27;4.60;;;;;;;;;;5049814;28;20525;-71
2022/05/24 00:31:56;;;;;;;5.63;4.20;;;;;;;;;;5063396;28;20934;-70
2022/05/24 00:34:24;;;;;;;7.30;3.90;;;;;;;;;;5065993;28;20453;-71
2022/05/24 00:36:52;;;;;;;5.37;3.90;;;;;;;;;;5058001;28;20442;-71
2022/05/24 00:39:19;;;;;;;4.10;3.70;;;;;;;;;;5066947;28;20468;-71
2022/05/24 00:41:53;;;;;;;4.70;3.90;;;;;;;;;;5071397;28;20464;-70
2022/05/24 00:44:23;;;;;;;4.83;4.33;;;;;;;;;;5058523;28;20877;-71
2022/05/24 00:46:56;;;;;;;5.00;4.00;;;;;;;;;;5076349;28;20453;-71
2022/05/24 00:49:26;;;;;;;8.97;4.10;;;;;;;;;;5068258;28;20726;-71
2022/05/24 00:51:56;;;;;;;5.90;4.73;;;;;;;;;;5070381;28;20450;-71
2022/05/24 00:54:25;;;;;;;5.90;4.50;;;;;;;;;;5058709;28;20931;-70
2022/05/24 00:56:57;;;;;;;7.63;5.50;;;;;;;;;;5061996;28;20465;-70
2022/05/24 00:59:28;;;;;;;5.37;4.23;;;;;;;;;;5066156;28;20884;-70
2022/05/24 01:01:57;;;;;;;5.90;4.30;;;;;;;;;;5068842;28;20547;-70
2022/05/24 01:04:28;;;;;;;8.57;5.77;;;;;;;;;;5073536;28;20528;-70
2022/05/24 01:06:56;;;;;;;6.53;4.80;;;;;;;;;;5070628;28;20734;-70
2022/05/24 01:09:29;;;;;;;4.93;4.20;;;;;;;;;;5067817;28;20457;-70
2022/05/24 01:11:59;;;;;;;5.40;4.57;;;;;;;;;;5075340;28;20448;-70
2022/05/24 01:14:28;;;;;;;7.13;4.53;;;;;;;;;;5066053;28;20501;-71
2022/05/24 01:16:58;;;;;;;7.73;4.93;;;;;;;;;;5070166;28;20449;-70
2022/05/24 01:19:33;;;;;;;5.63;5.13;;;;;;;;;;5068875;28;20449;-69
2022/05/24 01:22:01;;;;;;;6.20;5.60;;;;;;;;;;5069902;28;20453;-69
2022/05/24 01:24:32;;;;;;;6.13;5.10;;;;;;;;;;5064162;28;20448;-70
2022/05/24 01:27:02;;;;;;;6.33;5.40;;;;;;;;;;5056521;28;20449;-69
2022/05/24 01:29:30;;;;;;;7.07;6.13;;;;;;;;;;5073428;28;20460;-70
2022/05/24 01:37:36;;;;;;;9.70;5.60;;;;;;;;;;5057543;28;20444;-70
2022/05/24 01:40:04;;;;;;;6.13;5.53;;;;;;;;;;5076104;28;20455;-70
2022/05/24 01:42:33;;;;;;;6.93;6.07;;;;;;;;;;5066939;28;20477;-70
2022/05/24 01:45:03;;;;;;;8.60;6.43;;;;;;;;;;5073697;28;20453;-70
2022/05/24 01:47:32;;;;;;;7.90;7.20;;;;;;;;;;5075405;28;20465;-70
2022/05/24 01:50:01;;;;;;;8.30;6.80;;;;;;;;;;5068217;28;20453;-69
2022/05/24 01:52:33;;;;;;;8.77;7.87;;;;;;;;;;5076115;28;20457;-70
2022/05/24 01:55:07;;;;;;;9.47;7.73;;;;;;;;;;5062326;28;20759;-71
2022/05/24 01:57:39;;;;;;;11.00;7.90;;;;;;;;;;5068688;28;20532;-69
2022/05/24 02:00:09;;;;;;;9.87;8.57;;;;;;;;;;5062193;28;20459;-70
2022/05/24 02:02:37;;;;;;;7.67;6.87;;;;;;;;;;5063608;28;20445;-70
2022/05/24 02:05:05;;;;;;;8.67;5.30;;;;;;;;;;5061342;28;20484;-70
2022/05/24 02:07:36;;;;;;;7.20;4.60;;;;;;;;;;5056665;28;20495;-69
2022/05/24 02:10:03;;;;;;;5.40;4.10;;;;;;;;;;5049355;28;20957;-71
2022/05/24 02:12:49;;;;;;;;;;;;;;;;;;;;;
2022/05/24 02:15:20;;;;;;;3.80;2.20;;;;;;;;;;5053926;28;20456;-70
2022/05/24 02:17:49;;;;;;;6.70;2.90;;;;;;;;;;5057851;28;20472;-71
2022/05/24 02:20:22;;;;;;;2.20;1.80;;;;;;;;;;5075954;28;20452;-71
2022/05/24 02:22:50;;;;;;;2.30;1.63;;;;;;;;;;5075989;28;20517;-70
2022/05/24 02:25:20;;;;;;;4.00;2.63;;;;;;;;;;5075772;28;20888;-71
2022/05/24 02:27:49;;;;;;;4.00;2.53;;;;;;;;;;5075494;28;20840;-70
2022/05/24 02:30:19;;;;;;;4.20;2.80;;;;;;;;;;5070482;28;21042;-70
2022/05/24 02:32:47;;;;;;;4.00;2.87;;;;;;;;;;5055626;28;20445;-71
2022/05/24 02:35:15;;;;;;;4.40;2.57;;;;;;;;;;5055756;28;20461;-70
2022/05/24 02:37:46;;;;;;;4.30;3.03;;;;;;;;;;5055177;28;20794;-70
2022/05/24 02:42:59;;;;;;;5.43;4.30;;;;;;;;;;5055201;28;20753;-70
2022/05/24 02:45:31;;;;;;;7.20;5.10;;;;;;;;;;5046925;28;21028;-70
2022/05/24 02:47:59;;;;;;;6.33;5.00;;;;;;;;;;5055700;28;20450;-70
2022/05/24 02:50:27;;;;;;;7.03;5.20;;;;;;;;;;5049400;28;20762;-70
2022/05/24 02:53:00;;;;;;;5.50;4.73;;;;;;;;;;5059136;28;20460;-70
2022/05/24 02:55:28;;;;;;;6.47;4.83;;;;;;;;;;5059498;28;20457;-70
2022/05/24 02:57:56;;;;;;;7.03;5.40;;;;;;;;;;5058591;28;20454;-70
2022/05/24 03:00:24;;;;;;;8.00;5.43;;;;;;;;;;5059267;28;20556;-70
2022/05/24 03:02:54;;;;;;;7.47;5.53;;;;;;;;;;5058995;28;20457;-70
2022/05/24 03:05:25;;;;;;;6.43;4.60;;;;;;;;;;5058296;28;20888;-70
2022/05/24 03:10:41;;;;;;;6.23;4.90;;;;;;;;;;5058249;28;20555;-70
2022/05/24 03:15:53;;;;;;;8.40;7.23;;;;;;;;;;5052581;28;20438;-70
2022/05/24 03:18:24;;;;;;;7.57;6.20;;;;;;;;;;5057746;28;20929;-70
2022/05/24 03:20:51;;;;;;;7.93;7.23;;;;;;;;;;5057853;28;20489;-70
2022/05/24 03:23:19;;;;;;;7.70;6.60;;;;;;;;;;5058229;28;20445;-70
2022/05/24 03:25:47;;;;;;;9.27;6.47;;;;;;;;;;5058072;28;20453;-70
2022/05/24 03:28:15;;;;;;;7.73;6.17;;;;;;;;;;5058057;28;20802;-70
2022/05/24 03:30:43;;;;;;;6.50;5.87;;;;;;;;;;5058527;28;20481;-70
2022/05/24 03:33:11;;;;;;;7.60;6.80;;;;;;;;;;5058086;28;20454;-70
2022/05/24 03:35:40;;;;;;;8.30;6.47;;;;;;;;;;5058313;28;20736;-70
2022/05/24 03:38:08;;;;;;;7.70;6.50;;;;;;;;;;5058023;28;20449;-70
2022/05/24 03:40:36;;;;;;;9.40;7.00;;;;;;;;;;5058325;28;20526;-70
2022/05/24 03:43:06;;;;;;;14.20;6.97;;;;;;;;;;5058512;28;20446;-71
2022/05/24 03:45:35;;;;;;;9.70;6.40;;;;;;;;;;5056799;28;20488;-70
2022/05/24 03:48:03;;;;;;;6.47;5.53;;;;;;;;;;5075065;28;20455;-70
2022/05/24 03:50:31;;;;;;;8.83;5.33;;;;;;;;;;5073244;28;20568;-70
2022/05/24 03:53:03;;;;;;;6.03;4.63;;;;;;;;;;5058571;28;20503;-70
2022/05/24 03:55:31;;;;;;;7.50;4.60;;;;;;;;;;5057885;28;20453;-70
2022/05/24 03:58:02;;;;;;;5.53;4.50;;;;;;;;;;5057990;28;20935;-70
2022/05/24 04:00:32;;;;;;;4.33;3.67;;;;;;;;;;5058106;28;20515;-70
2022/05/24 04:03:00;;;;;;;7.60;4.40;;;;;;;;;;5057805;28;20548;-70
2022/05/24 04:05:30;;;;;;;4.70;3.80;;;;;;;;;;5058170;28;20453;-69
2022/05/24 04:08:10;;;;;;;6.23;3.80;;;;;;;;;;5058439;28;20449;-71
2022/05/24 04:10:39;;;;;;;5.67;4.60;;;;;;;;;;5057247;28;20890;-70
2022/05/24 04:13:10;;;;;;;5.53;3.67;;;;;;;;;;5057599;28;20768;-70
2022/05/24 04:15:38;;;;;;;4.13;2.90;;;;;;;;;;5058123;28;20468;-70
2022/05/24 04:18:05;;;;;;;4.83;3.13;;;;;;;;;;5056622;28;20519;-69
2022/05/24 04:20:37;;;;;;;7.13;3.20;;;;;;;;;;5056842;28;20462;-71
2022/05/24 04:23:06;;;;;;;8.67;3.00;;;;;;;;;;5056636;28;20460;-70
2022/05/24 04:25:38;;;;;;;4.10;2.97;;;;;;;;;;5056494;28;20458;-70
2022/05/24 04:28:06;;;;;;;3.63;2.70;;;;;;;;;;5056820;28;20457;-70
2022/05/24 04:30:34;;;;;;;5.70;3.60;;;;;;;;;;5056893;28;20465;-70
2022/05/24 04:33:02;;;;;;;4.27;2.70;;;;;;;;;;5048884;28;20548;-70
2022/05/24 04:35:30;;;;;;;4.80;3.47;;;;;;;;;;5056763;28;20450;-71
2022/05/24 04:37:57;;;;;;;5.50;3.53;;;;;;;;;;5056496;28;20896;-71
2022/05/24 04:43:08;;;;;;;6.23;3.87;;;;;;;;;;5056284;28;20723;-70
2022/05/24 04:45:35;;;;;;;4.73;3.73;;;;;;;;;;5056268;28;20502;-71
2022/05/24 04:48:03;;;;;;;4.47;3.33;;;;;;;;;;5056234;28;20461;-71
2022/05/24 04:50:31;;;;;;;3.53;3.20;;;;;;;;;;5055833;28;20449;-71
2022/05/24 04:52:58;;;;;;;5.90;3.73;;;;;;;;;;5055566;28;20485;-71
2022/05/24 04:55:28;;;;;;;7.63;3.83;;;;;;;;;;5055766;28;20449;-70
2022/05/24 04:57:59;;;;;;;5.50;3.37;;;;;;;;;;5055388;28;20457;-70
2022/05/24 05:00:27;;;;;;;7.57;4.50;;;;;;;;;;5055691;28;20532;-70
2022/05/24 05:02:55;;;;;;;7.60;3.83;;;;;;;;;;5054340;28;20555;-70
2022/05/24 05:05:22;;;;;;;8.20;4.20;;;;;;;;;;5054687;28;21027;-70
2022/05/24 05:07:51;;;;;;;6.90;4.07;;;;;;;;;;5056055;28;20457;-70
2022/05/24 05:10:18;;;;;;;4.93;4.20;;;;;;;;;;5055546;28;20449;-70
2022/05/24 05:12:49;;;;;;;6.83;4.70;;;;;;;;;;5054405;28;20622;-72
2022/05/24 05:15:17;;;;;;;4.90;3.93;;;;;;;;;;5054915;28;20453;-70
2022/05/24 05:17:45;;;;;;;6.13;4.23;;;;;;;;;;5053116;28;20472;-70
2022/05/24 05:20:13;;;;;;;5.20;4.70;;;;;;;;;;5052591;28;20481;-70
2022/05/24 05:22:41;;;;;;;6.67;4.50;;;;;;;;;;5053592;28;20450;-70
2022/05/24 05:25:12;;;;;;;7.67;4.63;;;;;;;;;;5053684;28;20453;-70
2022/05/24 05:27:42;;;;;;;5.70;4.50;;;;;;;;;;5054012;28;20465;-70
2022/05/24 05:33:04;;;;;;;5.83;4.10;;;;;;;;;;5052493;28;20472;-70
2022/05/24 05:35:32;;;;;;;7.27;4.90;;;;;;;;;;5052760;28;20866;-70
2022/05/24 05:37:59;;;;;;;6.20;4.67;;;;;;;;;;5051721;28;20457;-70
2022/05/24 05:40:27;;;;;;;4.53;3.80;;;;;;;;;;5053274;28;20453;-71
2022/05/24 05:42:55;;;;;;;6.40;4.70;;;;;;;;;;5051490;28;20445;-70
2022/05/24 05:45:24;;;;;;;5.23;4.67;;;;;;;;;;5052640;28;20452;-70
2022/05/24 05:47:53;;;;;;;5.93;4.20;;;;;;;;;;5052323;28;20457;-70
2022/05/24 05:50:21;;;;;;;5.50;3.87;;;;;;;;;;5052460;28;20463;-70
2022/05/24 05:52:52;;;;;;;6.00;4.30;;;;;;;;;;5052512;28;20478;-70
2022/05/24 05:55:20;;;;;;;5.23;4.57;;;;;;;;;;5052543;28;20446;-70
2022/05/24 05:57:48;;;;;;;4.60;3.53;;;;;;;;;;5051078;28;20500;-70
2022/05/24 06:00:17;;;;;;;4.13;3.53;;;;;;;;;;5052160;28;20445;-70
2022/05/24 06:02:46;;;;;;;5.87;4.43;;;;;;;;;;5053250;28;20457;-69
2022/05/24 06:05:14;;;;;;;6.37;4.07;;;;;;;;;;5049789;28;20453;-70
2022/05/24 06:07:42;;;;;;;4.40;3.37;;;;;;;;;;5045839;28;20454;-68
2022/05/24 06:10:11;;;;;;;4.13;3.00;;;;;;;;;;5042272;28;20446;-70
2022/05/24 06:12:38;;;;;;;5.87;3.63;;;;;;;;;;5040456;28;20499;-70
2022/05/24 06:15:07;;;;;;;5.00;3.63;;;;;;;;;;5043216;28;20458;-70
2022/05/24 06:17:35;;;;;;;5.77;3.57;;;;;;;;;;5053523;28;20457;-71
2022/05/24 06:20:07;;;;;;;5.60;3.53;;;;;;;;;;5051360;28;20535;-70
2022/05/24 06:22:38;;;;;;;5.87;5.23;;;;;;;;;;5050478;28;20448;-70
2022/05/24 06:25:08;;;;;;;6.03;4.37;;;;;;;;;;5048689;28;20726;-71
2022/05/24 06:27:36;;;;;;;7.83;4.17;;;;;;;;;;5044407;28;20473;-70
2022/05/24 06:30:04;;;;;;;5.63;3.30;;;;;;;;;;5045544;28;20461;-70
2022/05/24 06:32:32;;;;;;;7.33;3.73;;;;;;;;;;5052921;28;22180;-69
2022/05/24 06:35:00;;;;;;;5.67;3.73;;;;;;;;;;5052437;28;20464;-70
2022/05/24 06:37:31;;;;;;;5.43;3.40;;;;;;;;;;5050418;28;20460;-70
2022/05/24 06:39:59;;;;;;;4.30;3.27;;;;;;;;;;5052353;28;20457;-70
2022/05/24 06:42:27;;;;;;;4.50;3.43;;;;;;;;;;5052308;28;20453;-70
2022/05/24 06:44:56;;;;;;;4.90;3.60;;;;;;;;;;5053154;28;20824;-70
2022/05/24 06:47:26;;;;;;;5.37;3.50;;;;;;;;;;5052669;28;20878;-70
2022/05/24 06:49:55;;;;;;;4.60;2.60;;;;;;;;;;5052529;28;20856;-68
2022/05/24 06:52:23;;;;;;;3.57;2.70;;;;;;;;;;5052755;28;20481;-68
2022/05/24 06:54:54;;;;;;;4.37;3.17;;;;;;;;;;5053028;28;20563;-70
2022/05/24 06:57:25;;;;;;;4.53;3.17;;;;;;;;;;5051903;28;20453;-72
2022/05/24 07:02:45;;;;;;;3.63;2.60;;;;;;;;;;5052714;28;20436;-70
2022/05/24 07:05:16;;;;;;;4.93;3.30;;;;;;;;;;5052924;28;20443;-69
2022/05/24 07:07:49;;;;;;;4.60;3.37;;;;;;;;;;5052881;28;20519;-69
2022/05/24 07:10:20;;;;;;;4.10;3.60;;;;;;;;;;5052656;28;20492;-71
2022/05/24 07:12:48;;;;;;;3.50;3.10;;;;;;;;;;5051602;28;20492;-70
2022/05/24 07:15:16;;;;;;;4.40;3.40;;;;;;;;;;5050718;28;20455;-71
2022/05/24 07:17:43;;;;;;;4.90;3.13;;;;;;;;;;5052803;28;20879;-70
2022/05/24 07:20:11;;;;;;;6.73;5.20;;;;;;;;;;5052704;28;20492;-70
2022/05/24 07:22:44;;;;;;;6.20;5.07;;;;;;;;;;5051516;28;20471;-71
2022/05/24 07:25:16;;;;;;;4.10;3.30;;;;;;;;;;5041693;28;20540;-70
2022/05/24 07:27:48;;;;;;;5.70;4.00;;;;;;;;;;5052636;28;20809;-70
2022/05/24 07:30:16;;;;;;;6.07;4.37;;;;;;;;;;5051907;28;20935;-70
2022/05/24 07:32:45;;;;;;;6.13;4.10;;;;;;;;;;5051697;28;20842;-69
2022/05/24 07:35:16;;;;;;;4.77;3.57;;;;;;;;;;5052804;28;20462;-70
2022/05/24 07:37:44;;;;;;;7.40;3.63;;;;;;;;;;5055032;28;20457;-69
2022/05/24 07:45:56;;;;;;;7.00;4.20;;;;;;;;;;5039401;28;20452;-70
2022/05/24 07:48:25;;;;;;;4.20;3.60;;;;;;;;;;5063423;28;20461;-70
2022/05/24 07:50:54;;;;;;;5.30;4.20;;;;;;;;;;5059872;28;20445;-70
2022/05/24 07:53:26;;;;;;;12.13;4.07;;;;;;;;;;5061174;28;20928;-70
2022/05/24 07:55:57;;;;;;;6.97;4.53;;;;;;;;;;5055910;28;20465;-71
2022/05/24 07:58:27;;;;;;;8.10;5.07;;;;;;;;;;5054706;28;21110;-69
2022/05/24 08:00:57;;;;;;;5.13;4.07;;;;;;;;;;5053839;28;20533;-71
2022/05/24 08:03:24;;;;;;;5.90;3.80;;;;;;;;;;5055241;28;20474;-71
2022/05/24 08:05:53;;;;;;;5.00;3.63;;;;;;;;;;5055183;28;21044;-71
2022/05/24 08:08:21;;;;;;;6.53;4.50;;;;;;;;;;5055322;28;20453;-70
2022/05/24 08:10:49;;;;;;;5.20;3.77;;;;;;;;;;5055490;28;20450;-71
2022/05/24 08:13:19;;;;;;;5.27;4.10;;;;;;;;;;5054896;28;21210;-71
2022/05/24 08:15:49;;;;;;;6.83;5.57;;;;;;;;;;5055009;28;21134;-70
2022/05/24 08:18:17;;;;;;;5.80;4.73;;;;;;;;;;5051853;28;20492;-70
2022/05/24 08:20:45;;;;;;;9.50;5.17;;;;;;;;;;5051456;28;20472;-68
2022/05/24 08:23:14;;;;;;;10.50;4.67;;;;;;;;;;5054338;28;20499;-69
2022/05/24 08:25:42;;;;;;;6.13;4.03;;;;;;;;;;5055089;28;20441;-69
2022/05/24 08:28:15;;;;;;;5.80;4.60;;;;;;;;;;5054589;28;20743;-69
2022/05/24 08:30:43;;;;;;;5.53;4.10;;;;;;;;;;5056089;28;20461;-69
2022/05/24 08:33:17;;;;;;;5.77;4.30;;;;;;;;;;5056732;28;20489;-70
2022/05/24 08:35:46;;;;;;;7.00;4.20;;;;;;;;;;5055228;28;20467;-70
2022/05/24 08:38:15;;;;;;;6.23;4.37;;;;;;;;;;5050982;28;20456;-69
2022/05/24 08:40:44;;;;;;;5.43;4.33;;;;;;;;;;5055410;28;20484;-70
2022/05/24 08:43:24;;;;;;;4.97;3.90;;;;;;;;;;5055956;28;20475;-70
2022/05/24 08:48:42;;;;;;;6.60;5.00;;;;;;;;;;5055090;28;20532;-69
2022/05/24 08:51:12;;;;;;;4.90;3.93;;;;;;;;;;5054696;28;20500;-69
2022/05/24 08:53:43;;;;;;;5.83;4.60;;;;;;;;;;5054966;28;20473;-69
2022/05/24 08:56:13;;;;;;;5.60;4.50;;;;;;;;;;5054105;28;20579;-69
2022/05/24 08:58:44;;;;;;;5.93;4.57;;;;;;;;;;5054380;28;20738;-69
2022/05/24 09:01:17;;;;;;;5.27;4.13;;;;;;;;;;5053767;28;20462;-71
2022/05/24 09:03:47;;;;;;;5.73;4.37;;;;;;;;;;5054697;28;20525;-70
2022/05/24 09:06:18;;;;;;;4.57;3.70;;;;;;;;;;5056411;28;20466;-69
2022/05/24 09:08:53;;;;;;;6.47;4.37;;;;;;;;;;5054902;28;20465;-71
2022/05/24 09:11:24;;;;;;;6.33;4.90;;;;;;;;;;5047545;28;20457;-70
2022/05/24 09:14:05;;;;;;;6.63;4.80;;;;;;;;;;5053553;28;20582;-70
2022/05/24 09:16:38;;;;;;;5.33;3.73;;;;;;;;;;5057113;28;20457;-70
2022/05/24 09:19:19;;;;;;;7.40;4.47;;;;;;;;;;5054765;28;20454;-70
2022/05/24 09:21:51;;;;;;;4.70;3.00;;;;;;;;;;5038247;28;20489;-71
2022/05/24 09:24:23;;;;;;;4.87;3.57;;;;;;;;;;5048098;28;20765;-70
2022/05/24 09:27:12;;;;;;;5.23;3.50;;;;;;;;;;5054700;28;20468;-70
2022/05/24 09:29:54;;;;;;;5.53;3.43;;;;;;;;;;5052768;28;20460;-71
2022/05/24 09:32:22;;;;;;;6.67;4.03;;;;;;;;;;5050939;28;20491;-71
2022/05/24 09:35:01;;;;;;;5.47;3.50;;;;;;;;;;5041249;28;20863;-72
2022/05/24 09:37:29;;;;;;;4.73;3.37;;;;;;;;;;5053373;28;20461;-70
2022/05/24 09:40:02;;;;;;;4.60;3.33;;;;;;;;;;5052533;28;20461;-70
2022/05/24 09:42:31;;;;;;;5.70;4.10;;;;;;;;;;5048673;28;20742;-71
2022/05/24 09:45:00;;;;;;;4.80;3.10;;;;;;;;;;5051754;28;20460;-71
2022/05/24 09:47:31;;;;;;;5.93;3.50;;;;;;;;;;5047378;28;20468;-71
2022/05/24 09:50:16;;;;;;;6.30;4.23;;;;;;;;;;5053078;28;20739;-70
2022/05/24 09:53:05;;;;;;;5.00;3.83;;;;;;;;;;5047093;28;20576;-70
2022/05/24 09:55:39;;;;;;;4.87;4.03;;;;;;;;;;5053263;28;20446;-69
2022/05/24 09:58:17;;;;;;;5.40;4.57;;;;;;;;;;5053938;28;20450;-69
2022/05/24 10:00:51;;;;;;;5.70;4.30;;;;;;;;;;5046078;28;20441;-72
2022/05/24 10:03:25;;;;;;;5.70;4.70;;;;;;;;;;5049592;28;20471;-72
2022/05/24 10:06:02;;;;;;;6.50;5.20;;;;;;;;;;5057902;28;20507;-71
2022/05/24 10:08:35;;;;;;;5.70;4.80;;;;;;;;;;5049749;28;20480;-70
2022/05/24 10:11:08;;;;;;;7.30;5.73;;;;;;;;;;5048428;28;20449;-70
2022/05/24 10:13:40;;;;;;;7.10;5.50;;;;;;;;;;5051567;28;20782;-71
2022/05/24 10:16:13;;;;;;;7.60;5.33;;;;;;;;;;5053795;28;20515;-71
2022/05/24 10:18:47;;;;;;;7.33;4.30;;;;;;;;;;5045472;28;20511;-70
2022/05/24 10:21:18;;;;;;;7.27;4.80;;;;;;;;;;5053222;28;20905;-70
2022/05/24 10:23:55;;;;;;;7.33;5.83;;;;;;;;;;5049338;28;20476;-70
2022/05/24 10:26:33;;;;;;;6.07;4.80;;;;;;;;;;5045301;28;20457;-71
2022/05/24 10:29:05;;;;;;;6.87;5.10;;;;;;;;;;5052920;28;20603;-70
2022/05/24 10:31:46;;;;;;;8.73;5.17;;;;;;;;;;5052970;28;20476;-71
2022/05/24 10:40:00;;;;;;;12.80;10.23;;;;;;;;;;5049046;28;20452;-70
2022/05/24 10:42:33;;;;;;;7.30;5.70;;;;;;;;;;5052267;28;20531;-70
2022/05/24 10:45:02;;;;;;;9.60;7.50;;;;;;;;;;5053382;28;20784;-71
2022/05/24 10:47:35;;;;;;;7.33;6.53;;;;;;;;;;5054506;28;20541;-71
2022/05/24 10:50:06;;;;;;;8.60;6.90;;;;;;;;;;5052930;28;20481;-71
2022/05/24 10:52:36;;;;;;;8.47;7.57;;;;;;;;;;5052537;28;20453;-69
2022/05/24 10:55:11;;;;;;;8.93;7.20;;;;;;;;;;5052466;28;20853;-72
2022/05/24 10:57:43;;;;;;;8.77;6.60;;;;;;;;;;5053079;28;20449;-69
2022/05/24 11:00:14;;;;;;;7.17;4.97;;;;;;;;;;5053531;28;20461;-71
2022/05/24 11:02:53;;;;;;;8.80;6.43;;;;;;;;;;5051895;28;20452;-70
2022/05/24 11:05:28;;;;;;;6.07;5.17;;;;;;;;;;5050595;28;20457;-70
2022/05/24 11:08:12;;;;;;;6.63;3.73;;;;;;;;;;5051839;28;20770;-70
2022/05/24 11:10:50;;;;;;;6.50;3.90;;;;;;;;;;5049388;28;20461;-70
2022/05/24 11:13:21;;;;;;;4.20;3.67;;;;;;;;;;5058231;28;20481;-70
2022/05/24 11:15:51;;;;;;;4.40;3.87;;;;;;;;;;5054364;28;20461;-69
2022/05/24 11:18:20;;;;;;;7.40;4.20;;;;;;;;;;5056373;28;20459;-70
2022/05/24 11:20:54;;;;;;;7.07;5.20;;;;;;;;;;5055010;28;20914;-70
2022/05/24 11:23:24;;;;;;;8.50;5.43;;;;;;;;;;5055867;28;20448;-70
2022/05/24 11:25:55;;;;;;;5.93;5.30;;;;;;;;;;5055810;28;20519;-70
2022/05/24 11:28:28;;;;;;;6.43;4.77;;;;;;;;;;5050197;28;20457;-70
2022/05/24 11:31:00;;;;;;;7.40;5.57;;;;;;;;;;5056254;28;20493;-69
2022/05/24 11:33:37;;;;;;;9.23;5.90;;;;;;;;;;5055985;28;20484;-69
2022/05/24 11:36:23;;;;;;;6.70;5.33;;;;;;;;;;5047657;28;20465;-71
2022/05/24 11:38:51;;;;;;;6.13;5.53;;;;;;;;;;5055454;28;20441;-70
2022/05/24 11:41:28;;;;;;;7.63;5.97;;;;;;;;;;5056046;28;20461;-70
2022/05/24 11:44:00;;;;;;;7.97;6.60;;;;;;;;;;5056043;28;20449;-70
2022/05/24 11:46:47;;;;;;;6.43;5.83;;;;;;;;;;5055183;28;20471;-70
2022/05/24 11:49:30;;;;;;;6.57;5.67;;;;;;;;;;5058091;28;20460;-70
2022/05/24 11:52:04;;;;;;;6.60;5.53;;;;;;;;;;5034774;28;20461;-71
2022/05/24 11:57:58;;;;;;;6.60;5.20;;;;;;;;;;5053157;28;20452;-69
2022/05/24 12:00:33;;;;;;;7.33;5.03;;;;;;;;;;5051608;28;20658;-71
2022/05/24 12:09:13;;;;;;;4.40;2.53;;;;;;;;;;5055775;28;20498;-71
2022/05/24 12:11:42;;;;;;;3.53;2.10;;;;;;;;;;5052957;28;20477;-71
2022/05/24 12:14:17;;;;;;;3.30;1.80;;;;;;;;;;5053602;28;20492;-70
2022/05/24 12:17:12;;;;;;;6.83;4.13;;;;;;;;;;5054291;28;20461;-70
2022/05/24 12:19:48;;;;;;;5.37;3.23;;;;;;;;;;5050308;28;20541;-71
2022/05/24 12:22:16;;;;;;;5.67;2.73;;;;;;;;;;5051894;28;20912;-71
2022/05/24 12:24:58;;;;;;;4.13;2.80;;;;;;;;;;5055727;28;20521;-70
2022/05/24 12:27:56;;;;;;;5.10;2.70;;;;;;;;;;5048448;28;20496;-71
2022/05/24 12:30:39;;;;;;;5.03;3.60;;;;;;;;;;5054952;28;20481;-70
2022/05/24 12:33:13;;;;;;;6.03;2.27;;;;;;;;;;5055457;28;20458;-71
2022/05/24 12:35:41;;;;;;;3.80;2.50;;;;;;;;;;5054609;28;20488;-70
2022/05/24 12:38:18;;;;;;;5.43;2.47;;;;;;;;;;5056456;28;20511;-71
2022/05/24 12:40:52;;;;;;;3.67;2.20;;;;;;;;;;5056100;28;20911;-70
2022/05/24 12:43:20;;;;;;;5.20;2.20;;;;;;;;;;5055592;28;20515;-71
2022/05/24 12:45:52;;;;;;;4.13;2.37;;;;;;;;;;5055881;28;20571;-72
2022/05/24 12:48:37;;;;;;;4.50;3.07;;;;;;;;;;5053745;28;20466;-71
2022/05/24 12:51:13;;;;;;;3.80;2.17;;;;;;;;;;5052038;28;20468;-71
2022/05/24 12:53:42;;;;;;;4.23;2.30;;;;;;;;;;5052711;28;21118;-69
2022/05/24 12:56:16;;;;;;;3.27;1.90;;;;;;;;;;5054466;28;20469;-69
2022/05/24 12:58:45;;;;;;;2.50;1.80;;;;;;;;;;5052020;28;20536;-70
2022/05/24 13:01:19;;;;;;;3.50;1.90;;;;;;;;;;5054751;28;20446;-69
2022/05/24 13:03:48;;;;;;;7.20;2.40;;;;;;;;;;5053182;28;20480;-72
2022/05/24 13:06:27;;;;;;;2.97;2.07;;;;;;;;;;5051704;28;20458;-71
2022/05/24 13:09:15;;;;;;;2.80;1.50;;;;;;;;;;5058389;28;20457;-71
2022/05/24 13:11:44;;;;;;;5.00;1.63;;;;;;;;;;5048390;28;20468;-69
2022/05/24 13:14:13;;;;;;;5.50;2.70;;;;;;;;;;5051533;28;20547;-70
2022/05/24 13:16:52;;;;;;;5.30;2.10;;;;;;;;;;5054129;28;20877;-72
2022/05/24 13:19:21;;;;;;;4.50;2.53;;;;;;;;;;5055978;28;20461;-72
2022/05/24 13:21:54;;;;;;;3.77;2.13;;;;;;;;;;5056134;28;20475;-71
2022/05/24 13:24:23;;;;;;;4.33;2.80;;;;;;;;;;5052456;28;20453;-71
2022/05/24 13:26:59;;;;;;;3.50;2.20;;;;;;;;;;5053312;28;20507;-71
2022/05/24 13:29:29;;;;;;;4.50;1.80;;;;;;;;;;5055152;28;20648;-71
2022/05/24 13:35:08;;;;;;;6.73;2.57;;;;;;;;;;5050703;28;20559;-70
2022/05/24 13:37:50;;;;;;;3.07;2.10;;;;;;;;;;5050322;28;20449;-70
2022/05/24 13:40:18;;;;;;;7.10;2.23;;;;;;;;;;5056933;28;20475;-71
2022/05/24 13:42:57;;;;;;;6.57;3.00;;;;;;;;;;5045140;28;20860;-71
2022/05/24 13:45:26;;;;;;;3.50;2.17;;;;;;;;;;5040685;28;20462;-72
2022/05/24 13:47:56;;;;;;;2.73;2.23;;;;;;;;;;5044418;28;20463;-71
2022/05/24 13:50:37;;;;;;;6.37;2.40;;;;;;;;;;5046721;28;20470;-71
2022/05/24 13:53:07;;;;;;;4.30;2.20;;;;;;;;;;5052990;28;20703;-72
2022/05/24 13:55:36;;;;;;;3.47;2.20;;;;;;;;;;5049968;28;20476;-70
2022/05/24 13:58:08;;;;;;;3.93;2.00;;;;;;;;;;5051788;28;20441;-71
2022/05/24 14:00:55;;;;;;;2.90;2.03;;;;;;;;;;5046892;28;20786;-71
2022/05/24 14:03:32;;;;;;;4.53;1.97;;;;;;;;;;5051032;28;20531;-71
2022/05/24 14:06:07;;;;;;;3.07;1.60;;;;;;;;;;5051912;28;20757;-70
2022/05/24 14:08:40;;;;;;;5.17;2.40;;;;;;;;;;5052684;28;20532;-70
2022/05/24 14:11:15;;;;;;;2.80;2.10;;;;;;;;;;5051056;28;20468;-71
2022/05/24 14:13:50;;;;;;;2.33;1.87;;;;;;;;;;5051636;28;20441;-71
2022/05/24 14:16:25;;;;;;;6.43;2.07;;;;;;;;;;5046603;28;20560;-71
2022/05/24 14:18:54;;;;;;;3.30;2.20;;;;;;;;;;5049716;28;20560;-69
2022/05/24 14:21:33;;;;;;;2.43;1.80;;;;;;;;;;5056250;28;20756;-71
2022/05/24 14:24:03;;;;;;;2.70;1.60;;;;;;;;;;5047696;28;21098;-70
2022/05/24 14:26:33;;;;;;;5.10;2.87;;;;;;;;;;5059922;28;20460;-70
2022/05/24 14:29:10;;;;;;;3.43;1.43;;;;;;;;;;5050089;28;20729;-70
2022/05/24 14:31:38;;;;;;;2.70;1.30;;;;;;;;;;5052464;28;20448;-70
2022/05/24 14:34:10;;;;;;;2.43;1.37;;;;;;;;;;5045275;28;20984;-70
2022/05/24 14:36:40;;;;;;;2.53;1.47;;;;;;;;;;5049536;28;20469;-70
2022/05/24 14:39:08;;;;;;;5.37;2.50;;;;;;;;;;5049902;28;20519;-70
2022/05/24 14:41:42;;;;;;;2.90;1.33;;;;;;;;;;5052777;28;20453;-71
2022/05/24 14:44:19;;;;;;;3.50;1.40;;;;;;;;;;5050573;28;20457;-71
2022/05/24 14:46:52;;;;;;;5.37;1.70;;;;;;;;;;5055521;28;20481;-69
2022/05/24 14:49:25;;;;;;;2.90;1.53;;;;;;;;;;5055156;28;21006;-68
2022/05/24 14:51:58;;;;;;;3.70;1.90;;;;;;;;;;5067242;28;20498;-69
2022/05/24 14:54:26;;;;;;;6.53;2.20;;;;;;;;;;5054753;28;20496;-70
2022/05/24 14:56:54;;;;;;;2.17;1.40;;;;;;;;;;5055435;28;20461;-69
2022/05/24 14:59:27;;;;;;;4.30;1.50;;;;;;;;;;5055646;28;20533;-68
2022/05/24 15:01:56;;;;;;;5.60;2.70;;;;;;;;;;5056476;28;20801;-69
2022/05/24 15:04:30;;;;;;;2.63;1.60;;;;;;;;;;5055835;28;20455;-70
2022/05/24 15:15:20;;;;;;;3.57;1.57;;;;;;;;;;5054891;28;20444;-70
2022/05/24 15:15:24;;;;;;;3.27;1.60;;;;;;;;;;5053663;28;21154;-70
2022/05/24 15:17:52;;;;;;;2.47;1.70;;;;;;;;;;5054738;28;20458;-68
2022/05/24 15:20:24;;;;;;;4.47;1.80;;;;;;;;;;5055147;28;20461;-70
2022/05/24 15:22:56;;;;;;;6.33;1.30;;;;;;;;;;5054817;28;20460;-69
2022/05/24 15:25:24;;;;;;;4.03;1.90;;;;;;;;;;5054865;28;20740;-69
2022/05/24 15:27:52;;;;;;;2.70;1.60;;;;;;;;;;5053082;28;20457;-70
2022/05/24 15:30:20;;;;;;;3.30;2.00;;;;;;;;;;5051304;28;20861;-69
2022/05/24 15:32:52;;;;;;;4.73;1.90;;;;;;;;;;5053472;28;20518;-70
2022/05/24 15:35:26;;;;;;;2.93;1.50;;;;;;;;;;5049018;28;20481;-70
2022/05/24 15:37:56;;;;;;;2.80;1.50;;;;;;;;;;5050789;28;20470;-70
2022/05/24 15:40:23;;;;;;;2.90;2.10;;;;;;;;;;5054811;28;20487;-69
2022/05/24 15:42:54;;;;;;;7.27;2.30;;;;;;;;;;5059907;28;20456;-69
2022/05/24 15:45:23;;;;;;;3.87;1.97;;;;;;;;;;5047159;28;20878;-70
2022/05/24 15:47:50;;;;;;;8.00;2.60;;;;;;;;;;5052071;28;20457;-69
2022/05/24 15:50:21;;;;;;;3.50;1.97;;;;;;;;;;5053037;28;20556;-70
2022/05/24 15:52:51;;;;;;;3.73;2.33;;;;;;;;;;5052563;28;20453;-70
2022/05/24 15:55:21;;;;;;;5.23;2.40;;;;;;;;;;5054677;28;20513;-70
2022/05/24 15:57:49;;;;;;;3.63;2.27;;;;;;;;;;5045882;28;20466;-70
2022/05/24 16:00:30;;;;;;;2.67;1.80;;;;;;;;;;5055418;28;20461;-70
2022/05/24 16:03:03;;;;;;;3.93;1.90;;;;;;;;;;5055341;28;20487;-70